sensor_id;sensor_type;location;lat;lon;timestamp;P1;durP1;ratioP1;P2;durP2;ratioP2
21162;SDS011;10739;52.198;20.908;2023-09-12T00:00:01;25.23;;;17.25;;
21162;SDS011;10739;52.198;20.908;2023-09-12T00:02:30;20.60;;;16.70;;
21162;SDS011;10739;52.198;20.908;2023-09-12T00:04:56;22.52;;;16.33;;
21162;SDS011;10739;52.198;20.908;2023-09-12T00:07:23;22.60;;;16.45;;
21162;SDS011;10739;52.198;20.908;2023-09-12T00:09:49;20.08;;;16.20;;
21162;SDS011;10739;52.198;20.908;2023-09-12T00:12:15;25.60;;;17.77;;
21162;SDS011;10739;52.198;20.908;2023-09-12T00:14:42;29.08;;;17.15;;
21162;SDS011;10739;52.198;20.908;2023-09-12T00:17:09;23.70;;;17.25;;
21162;SDS011;10739;52.198;20.908;2023-09-12T00:19:35;25.45;;;18.13;;
21162;SDS011;10739;52.198;20.908;2023-09-12T00:22:01;21.33;;;17.50;;
21162;SDS011;10739;52.198;20.908;2023-09-12T00:24:28;21.27;;;16.92;;
21162;SDS011;10739;52.198;20.908;2023-09-12T00:26:55;22.65;;;16.95;;
21162;SDS011;10739;52.198;20.908;2023-09-12T00:29:21;23.33;;;16.85;;
21162;SDS011;10739;52.198;20.908;2023-09-12T00:31:47;24.30;;;16.92;;
21162;SDS011;10739;52.198;20.908;2023-09-12T00:34:17;23.80;;;17.30;;
21162;SDS011;10739;52.198;20.908;2023-09-12T00:36:43;24.35;;;16.95;;
21162;SDS011;10739;52.198;20.908;2023-09-12T00:39:09;25.10;;;17.42;;
21162;SDS011;10739;52.198;20.908;2023-09-12T00:41:35;25.33;;;18.48;;
21162;SDS011;10739;52.198;20.908;2023-09-12T00:44:01;21.67;;;17.60;;
21162;SDS011;10739;52.198;20.908;2023-09-12T00:46:28;26.85;;;18.42;;
21162;SDS011;10739;52.198;20.908;2023-09-12T00:48:55;26.98;;;18.73;;
21162;SDS011;10739;52.198;20.908;2023-09-12T00:51:24;25.40;;;17.30;;
21162;SDS011;10739;52.198;20.908;2023-09-12T00:53:52;25.67;;;18.00;;
21162;SDS011;10739;52.198;20.908;2023-09-12T00:56:19;24.15;;;18.42;;
21162;SDS011;10739;52.198;20.908;2023-09-12T00:58:46;25.30;;;17.92;;
21162;SDS011;10739;52.198;20.908;2023-09-12T01:01:12;19.40;;;16.98;;
21162;SDS011;10739;52.198;20.908;2023-09-12T01:03:39;23.17;;;18.65;;
21162;SDS011;10739;52.198;20.908;2023-09-12T01:06:05;20.58;;;16.85;;
21162;SDS011;10739;52.198;20.908;2023-09-12T01:08:34;18.67;;;16.70;;
21162;SDS011;10739;52.198;20.908;2023-09-12T01:11:02;22.10;;;16.52;;
21162;SDS011;10739;52.198;20.908;2023-09-12T01:13:29;26.20;;;17.42;;
21162;SDS011;10739;52.198;20.908;2023-09-12T01:15:56;24.88;;;18.83;;
21162;SDS011;10739;52.198;20.908;2023-09-12T01:18:22;25.80;;;17.45;;
21162;SDS011;10739;52.198;20.908;2023-09-12T01:20:56;23.48;;;17.05;;
21162;SDS011;10739;52.198;20.908;2023-09-12T01:24:29;24.48;;;19.45;;
21162;SDS011;10739;52.198;20.908;2023-09-12T01:29:49;26.17;;;19.23;;
21162;SDS011;10739;52.198;20.908;2023-09-12T01:32:22;26.95;;;18.83;;
21162;SDS011;10739;52.198;20.908;2023-09-12T01:34:48;26.98;;;18.65;;
21162;SDS011;10739;52.198;20.908;2023-09-12T01:37:14;28.52;;;19.25;;
21162;SDS011;10739;52.198;20.908;2023-09-12T01:39:41;23.05;;;19.58;;
21162;SDS011;10739;52.198;20.908;2023-09-12T01:42:08;27.35;;;19.33;;
21162;SDS011;10739;52.198;20.908;2023-09-12T01:44:40;25.02;;;19.05;;
21162;SDS011;10739;52.198;20.908;2023-09-12T01:47:09;21.90;;;18.05;;
21162;SDS011;10739;52.198;20.908;2023-09-12T01:49:41;26.33;;;18.15;;
21162;SDS011;10739;52.198;20.908;2023-09-12T01:52:12;24.88;;;18.65;;
21162;SDS011;10739;52.198;20.908;2023-09-12T01:54:40;22.88;;;17.85;;
21162;SDS011;10739;52.198;20.908;2023-09-12T01:57:08;25.98;;;17.55;;
21162;SDS011;10739;52.198;20.908;2023-09-12T01:59:35;24.95;;;17.55;;
21162;SDS011;10739;52.198;20.908;2023-09-12T02:02:02;28.38;;;17.85;;
21162;SDS011;10739;52.198;20.908;2023-09-12T02:04:28;21.55;;;18.08;;
21162;SDS011;10739;52.198;20.908;2023-09-12T02:06:55;25.25;;;18.33;;
21162;SDS011;10739;52.198;20.908;2023-09-12T02:09:21;22.02;;;18.15;;
21162;SDS011;10739;52.198;20.908;2023-09-12T02:11:48;20.73;;;18.38;;
21162;SDS011;10739;52.198;20.908;2023-09-12T02:14:15;25.48;;;17.20;;
21162;SDS011;10739;52.198;20.908;2023-09-12T02:16:43;19.80;;;17.70;;
21162;SDS011;10739;52.198;20.908;2023-09-12T02:19:10;21.98;;;18.50;;
21162;SDS011;10739;52.198;20.908;2023-09-12T02:21:36;24.45;;;19.08;;
21162;SDS011;10739;52.198;20.908;2023-09-12T02:24:02;22.08;;;19.05;;
21162;SDS011;10739;52.198;20.908;2023-09-12T02:26:29;28.58;;;19.02;;
21162;SDS011;10739;52.198;20.908;2023-09-12T02:28:55;23.10;;;18.98;;
21162;SDS011;10739;52.198;20.908;2023-09-12T02:31:21;23.35;;;18.55;;
21162;SDS011;10739;52.198;20.908;2023-09-12T02:33:48;27.40;;;19.17;;
21162;SDS011;10739;52.198;20.908;2023-09-12T02:36:14;23.05;;;18.90;;
21162;SDS011;10739;52.198;20.908;2023-09-12T02:38:40;23.25;;;18.52;;
21162;SDS011;10739;52.198;20.908;2023-09-12T02:41:06;26.67;;;20.10;;
21162;SDS011;10739;52.198;20.908;2023-09-12T02:43:32;23.45;;;20.35;;
21162;SDS011;10739;52.198;20.908;2023-09-12T02:45:59;27.02;;;19.63;;
21162;SDS011;10739;52.198;20.908;2023-09-12T02:48:25;22.52;;;19.00;;
21162;SDS011;10739;52.198;20.908;2023-09-12T02:50:51;22.25;;;18.17;;
21162;SDS011;10739;52.198;20.908;2023-09-12T02:53:18;30.38;;;19.15;;
21162;SDS011;10739;52.198;20.908;2023-09-12T02:55:44;23.73;;;19.38;;
21162;SDS011;10739;52.198;20.908;2023-09-12T02:58:10;25.20;;;18.85;;
21162;SDS011;10739;52.198;20.908;2023-09-12T03:00:37;26.30;;;20.23;;
21162;SDS011;10739;52.198;20.908;2023-09-12T03:03:06;21.35;;;18.63;;
21162;SDS011;10739;52.198;20.908;2023-09-12T03:05:34;24.63;;;19.25;;
21162;SDS011;10739;52.198;20.908;2023-09-12T03:08:01;27.42;;;18.73;;
21162;SDS011;10739;52.198;20.908;2023-09-12T03:10:28;28.50;;;20.75;;
21162;SDS011;10739;52.198;20.908;2023-09-12T03:12:55;26.40;;;20.25;;
21162;SDS011;10739;52.198;20.908;2023-09-12T03:15:21;27.35;;;20.58;;
21162;SDS011;10739;52.198;20.908;2023-09-12T03:17:47;21.48;;;19.20;;
21162;SDS011;10739;52.198;20.908;2023-09-12T03:20:13;22.00;;;19.65;;
21162;SDS011;10739;52.198;20.908;2023-09-12T03:22:39;23.20;;;20.73;;
21162;SDS011;10739;52.198;20.908;2023-09-12T03:25:06;31.67;;;21.48;;
21162;SDS011;10739;52.198;20.908;2023-09-12T03:27:32;30.08;;;24.60;;
21162;SDS011;10739;52.198;20.908;2023-09-12T03:29:59;30.05;;;20.95;;
21162;SDS011;10739;52.198;20.908;2023-09-12T03:32:25;27.77;;;20.63;;
21162;SDS011;10739;52.198;20.908;2023-09-12T03:34:51;26.15;;;20.05;;
21162;SDS011;10739;52.198;20.908;2023-09-12T03:37:17;32.70;;;21.08;;
21162;SDS011;10739;52.198;20.908;2023-09-12T03:39:43;27.35;;;21.13;;
21162;SDS011;10739;52.198;20.908;2023-09-12T03:42:09;25.85;;;22.08;;
21162;SDS011;10739;52.198;20.908;2023-09-12T03:44:35;26.65;;;21.65;;
21162;SDS011;10739;52.198;20.908;2023-09-12T03:47:02;26.23;;;22.92;;
21162;SDS011;10739;52.198;20.908;2023-09-12T03:49:28;34.13;;;23.30;;
21162;SDS011;10739;52.198;20.908;2023-09-12T03:51:54;25.83;;;22.20;;
21162;SDS011;10739;52.198;20.908;2023-09-12T03:54:20;26.70;;;21.98;;
21162;SDS011;10739;52.198;20.908;2023-09-12T03:56:47;31.65;;;21.58;;
21162;SDS011;10739;52.198;20.908;2023-09-12T03:59:13;28.40;;;21.67;;
21162;SDS011;10739;52.198;20.908;2023-09-12T04:01:39;32.63;;;22.85;;
21162;SDS011;10739;52.198;20.908;2023-09-12T04:04:05;31.58;;;23.45;;
21162;SDS011;10739;52.198;20.908;2023-09-12T04:06:31;29.33;;;22.65;;
21162;SDS011;10739;52.198;20.908;2023-09-12T04:08:57;30.40;;;22.50;;
21162;SDS011;10739;52.198;20.908;2023-09-12T04:11:24;35.72;;;22.85;;
21162;SDS011;10739;52.198;20.908;2023-09-12T04:13:50;31.55;;;22.95;;
21162;SDS011;10739;52.198;20.908;2023-09-12T04:16:16;26.88;;;23.40;;
21162;SDS011;10739;52.198;20.908;2023-09-12T04:18:42;29.25;;;21.65;;
21162;SDS011;10739;52.198;20.908;2023-09-12T04:21:10;29.33;;;23.52;;
21162;SDS011;10739;52.198;20.908;2023-09-12T04:23:38;27.35;;;21.83;;
21162;SDS011;10739;52.198;20.908;2023-09-12T04:26:05;29.92;;;22.63;;
21162;SDS011;10739;52.198;20.908;2023-09-12T04:28:31;29.98;;;22.55;;
21162;SDS011;10739;52.198;20.908;2023-09-12T04:31:01;25.48;;;22.73;;
21162;SDS011;10739;52.198;20.908;2023-09-12T04:33:28;27.08;;;22.63;;
21162;SDS011;10739;52.198;20.908;2023-09-12T04:35:57;31.67;;;24.00;;
21162;SDS011;10739;52.198;20.908;2023-09-12T04:38:26;28.73;;;23.70;;
21162;SDS011;10739;52.198;20.908;2023-09-12T04:40:53;31.35;;;24.90;;
21162;SDS011;10739;52.198;20.908;2023-09-12T04:43:28;29.13;;;24.35;;
21162;SDS011;10739;52.198;20.908;2023-09-12T04:45:55;32.50;;;24.20;;
21162;SDS011;10739;52.198;20.908;2023-09-12T04:48:21;32.70;;;23.75;;
21162;SDS011;10739;52.198;20.908;2023-09-12T04:50:48;32.92;;;24.35;;
21162;SDS011;10739;52.198;20.908;2023-09-12T04:53:16;37.17;;;24.33;;
21162;SDS011;10739;52.198;20.908;2023-09-12T04:55:42;34.50;;;23.90;;
21162;SDS011;10739;52.198;20.908;2023-09-12T04:58:08;36.05;;;24.92;;
21162;SDS011;10739;52.198;20.908;2023-09-12T05:00:34;29.65;;;22.95;;
21162;SDS011;10739;52.198;20.908;2023-09-12T05:03:01;30.70;;;25.10;;
21162;SDS011;10739;52.198;20.908;2023-09-12T05:05:29;31.63;;;23.40;;
21162;SDS011;10739;52.198;20.908;2023-09-12T05:07:55;33.13;;;24.80;;
21162;SDS011;10739;52.198;20.908;2023-09-12T05:10:21;34.38;;;27.38;;
21162;SDS011;10739;52.198;20.908;2023-09-12T05:12:47;31.15;;;25.08;;
21162;SDS011;10739;52.198;20.908;2023-09-12T05:15:14;38.28;;;26.15;;
21162;SDS011;10739;52.198;20.908;2023-09-12T05:17:40;37.28;;;26.00;;
21162;SDS011;10739;52.198;20.908;2023-09-12T05:20:06;37.25;;;26.35;;
21162;SDS011;10739;52.198;20.908;2023-09-12T05:22:33;36.70;;;27.10;;
21162;SDS011;10739;52.198;20.908;2023-09-12T05:24:59;30.70;;;24.77;;
21162;SDS011;10739;52.198;20.908;2023-09-12T05:27:25;32.08;;;24.75;;
21162;SDS011;10739;52.198;20.908;2023-09-12T05:29:51;33.92;;;25.65;;
21162;SDS011;10739;52.198;20.908;2023-09-12T05:32:17;32.22;;;25.33;;
21162;SDS011;10739;52.198;20.908;2023-09-12T05:34:43;34.05;;;24.92;;
21162;SDS011;10739;52.198;20.908;2023-09-12T05:37:10;34.17;;;24.38;;
21162;SDS011;10739;52.198;20.908;2023-09-12T05:39:37;35.08;;;24.23;;
21162;SDS011;10739;52.198;20.908;2023-09-12T05:42:03;31.30;;;25.77;;
21162;SDS011;10739;52.198;20.908;2023-09-12T05:44:29;39.90;;;24.38;;
21162;SDS011;10739;52.198;20.908;2023-09-12T05:46:55;39.85;;;26.30;;
21162;SDS011;10739;52.198;20.908;2023-09-12T05:49:22;34.65;;;24.27;;
21162;SDS011;10739;52.198;20.908;2023-09-12T05:51:48;28.50;;;23.00;;
21162;SDS011;10739;52.198;20.908;2023-09-12T05:54:14;31.85;;;24.27;;
21162;SDS011;10739;52.198;20.908;2023-09-12T05:56:41;34.80;;;23.52;;
21162;SDS011;10739;52.198;20.908;2023-09-12T05:59:07;37.50;;;24.10;;
21162;SDS011;10739;52.198;20.908;2023-09-12T06:01:33;38.00;;;23.17;;
21162;SDS011;10739;52.198;20.908;2023-09-12T06:03:59;32.60;;;23.33;;
21162;SDS011;10739;52.198;20.908;2023-09-12T06:06:25;30.25;;;22.50;;
21162;SDS011;10739;52.198;20.908;2023-09-12T06:08:53;28.95;;;22.83;;
21162;SDS011;10739;52.198;20.908;2023-09-12T06:11:19;28.38;;;22.40;;
21162;SDS011;10739;52.198;20.908;2023-09-12T06:13:45;27.05;;;20.60;;
21162;SDS011;10739;52.198;20.908;2023-09-12T06:16:11;29.08;;;20.73;;
21162;SDS011;10739;52.198;20.908;2023-09-12T06:18:37;31.15;;;20.77;;
21162;SDS011;10739;52.198;20.908;2023-09-12T06:21:03;24.83;;;20.60;;
21162;SDS011;10739;52.198;20.908;2023-09-12T06:23:33;31.05;;;21.08;;
21162;SDS011;10739;52.198;20.908;2023-09-12T06:26:00;26.45;;;20.27;;
21162;SDS011;10739;52.198;20.908;2023-09-12T06:28:27;26.60;;;20.17;;
21162;SDS011;10739;52.198;20.908;2023-09-12T06:30:55;25.55;;;19.60;;
21162;SDS011;10739;52.198;20.908;2023-09-12T06:33:23;28.90;;;18.23;;
21162;SDS011;10739;52.198;20.908;2023-09-12T06:35:52;22.90;;;18.75;;
21162;SDS011;10739;52.198;20.908;2023-09-12T06:38:19;25.70;;;17.92;;
21162;SDS011;10739;52.198;20.908;2023-09-12T06:40:47;26.83;;;17.05;;
21162;SDS011;10739;52.198;20.908;2023-09-12T06:43:14;29.67;;;17.23;;
21162;SDS011;10739;52.198;20.908;2023-09-12T06:45:40;18.23;;;16.40;;
21162;SDS011;10739;52.198;20.908;2023-09-12T06:48:06;27.08;;;16.63;;
21162;SDS011;10739;52.198;20.908;2023-09-12T06:50:33;24.55;;;18.05;;
21162;SDS011;10739;52.198;20.908;2023-09-12T06:52:59;23.65;;;15.73;;
21162;SDS011;10739;52.198;20.908;2023-09-12T06:55:25;18.90;;;14.50;;
21162;SDS011;10739;52.198;20.908;2023-09-12T06:57:53;18.48;;;15.60;;
21162;SDS011;10739;52.198;20.908;2023-09-12T07:00:19;22.73;;;14.77;;
21162;SDS011;10739;52.198;20.908;2023-09-12T07:02:45;16.77;;;13.63;;
21162;SDS011;10739;52.198;20.908;2023-09-12T07:05:11;18.25;;;14.15;;
21162;SDS011;10739;52.198;20.908;2023-09-12T07:07:37;24.15;;;13.63;;
21162;SDS011;10739;52.198;20.908;2023-09-12T07:10:04;18.05;;;13.88;;
21162;SDS011;10739;52.198;20.908;2023-09-12T07:12:31;22.23;;;13.20;;
21162;SDS011;10739;52.198;20.908;2023-09-12T07:14:58;20.55;;;13.50;;
21162;SDS011;10739;52.198;20.908;2023-09-12T07:17:27;22.60;;;13.88;;
21162;SDS011;10739;52.198;20.908;2023-09-12T07:19:53;22.45;;;12.60;;
21162;SDS011;10739;52.198;20.908;2023-09-12T07:22:19;17.48;;;13.45;;
21162;SDS011;10739;52.198;20.908;2023-09-12T07:24:46;30.17;;;13.52;;
21162;SDS011;10739;52.198;20.908;2023-09-12T07:27:12;16.85;;;12.82;;
21162;SDS011;10739;52.198;20.908;2023-09-12T07:29:38;17.80;;;12.18;;
21162;SDS011;10739;52.198;20.908;2023-09-12T07:32:04;18.75;;;12.02;;
21162;SDS011;10739;52.198;20.908;2023-09-12T07:34:30;16.80;;;12.88;;
21162;SDS011;10739;52.198;20.908;2023-09-12T07:36:56;24.77;;;13.38;;
21162;SDS011;10739;52.198;20.908;2023-09-12T07:39:23;24.48;;;13.27;;
21162;SDS011;10739;52.198;20.908;2023-09-12T07:41:49;18.50;;;12.32;;
21162;SDS011;10739;52.198;20.908;2023-09-12T07:44:15;21.33;;;13.73;;
21162;SDS011;10739;52.198;20.908;2023-09-12T07:46:42;17.45;;;12.65;;
21162;SDS011;10739;52.198;20.908;2023-09-12T07:49:09;23.83;;;13.50;;
21162;SDS011;10739;52.198;20.908;2023-09-12T07:51:35;23.25;;;13.70;;
21162;SDS011;10739;52.198;20.908;2023-09-12T07:54:01;19.27;;;12.70;;
21162;SDS011;10739;52.198;20.908;2023-09-12T07:56:28;33.17;;;12.90;;
21162;SDS011;10739;52.198;20.908;2023-09-12T07:58:56;25.25;;;13.25;;
21162;SDS011;10739;52.198;20.908;2023-09-12T08:01:23;16.52;;;12.07;;
21162;SDS011;10739;52.198;20.908;2023-09-12T08:03:49;17.02;;;11.02;;
21162;SDS011;10739;52.198;20.908;2023-09-12T08:06:16;20.63;;;11.75;;
21162;SDS011;10739;52.198;20.908;2023-09-12T08:08:42;19.27;;;11.90;;
21162;SDS011;10739;52.198;20.908;2023-09-12T08:11:08;17.23;;;11.43;;
21162;SDS011;10739;52.198;20.908;2023-09-12T08:13:35;20.35;;;11.70;;
21162;SDS011;10739;52.198;20.908;2023-09-12T08:16:01;22.13;;;11.38;;
21162;SDS011;10739;52.198;20.908;2023-09-12T08:18:28;20.05;;;10.63;;
21162;SDS011;10739;52.198;20.908;2023-09-12T08:20:56;15.80;;;10.50;;
21162;SDS011;10739;52.198;20.908;2023-09-12T08:23:22;20.80;;;11.40;;
21162;SDS011;10739;52.198;20.908;2023-09-12T08:25:49;15.73;;;11.20;;
21162;SDS011;10739;52.198;20.908;2023-09-12T08:28:15;16.55;;;10.82;;
21162;SDS011;10739;52.198;20.908;2023-09-12T08:30:43;18.67;;;11.00;;
21162;SDS011;10739;52.198;20.908;2023-09-12T08:33:11;15.38;;;10.70;;
21162;SDS011;10739;52.198;20.908;2023-09-12T08:35:37;17.08;;;10.10;;
21162;SDS011;10739;52.198;20.908;2023-09-12T08:38:03;13.10;;;9.15;;
21162;SDS011;10739;52.198;20.908;2023-09-12T08:40:32;21.30;;;9.10;;
21162;SDS011;10739;52.198;20.908;2023-09-12T08:43:00;23.75;;;10.05;;
21162;SDS011;10739;52.198;20.908;2023-09-12T08:45:30;18.33;;;9.43;;
21162;SDS011;10739;52.198;20.908;2023-09-12T08:47:57;14.90;;;9.30;;
21162;SDS011;10739;52.198;20.908;2023-09-12T08:50:28;13.32;;;8.40;;
21162;SDS011;10739;52.198;20.908;2023-09-12T08:52:59;17.27;;;8.10;;
21162;SDS011;10739;52.198;20.908;2023-09-12T08:55:26;16.95;;;8.95;;
21162;SDS011;10739;52.198;20.908;2023-09-12T08:57:52;10.95;;;7.43;;
21162;SDS011;10739;52.198;20.908;2023-09-12T09:00:21;15.98;;;9.27;;
21162;SDS011;10739;52.198;20.908;2023-09-12T09:02:49;14.05;;;9.18;;
21162;SDS011;10739;52.198;20.908;2023-09-12T09:05:17;20.67;;;8.73;;
21162;SDS011;10739;52.198;20.908;2023-09-12T09:07:46;11.27;;;8.48;;
21162;SDS011;10739;52.198;20.908;2023-09-12T09:10:14;14.05;;;8.65;;
21162;SDS011;10739;52.198;20.908;2023-09-12T09:12:43;15.55;;;8.73;;
21162;SDS011;10739;52.198;20.908;2023-09-12T09:15:20;12.55;;;8.00;;
21162;SDS011;10739;52.198;20.908;2023-09-12T09:17:54;9.25;;;7.60;;
21162;SDS011;10739;52.198;20.908;2023-09-12T09:20:29;16.48;;;8.15;;
21162;SDS011;10739;52.198;20.908;2023-09-12T09:23:07;9.80;;;8.13;;
21162;SDS011;10739;52.198;20.908;2023-09-12T09:28:17;15.48;;;8.85;;
21162;SDS011;10739;52.198;20.908;2023-09-12T09:30:47;25.45;;;9.05;;
21162;SDS011;10739;52.198;20.908;2023-09-12T09:33:20;22.23;;;8.57;;
21162;SDS011;10739;52.198;20.908;2023-09-12T09:35:47;17.58;;;8.32;;
21162;SDS011;10739;52.198;20.908;2023-09-12T09:38:14;18.70;;;8.82;;
21162;SDS011;10739;52.198;20.908;2023-09-12T09:40:44;11.55;;;7.75;;
21162;SDS011;10739;52.198;20.908;2023-09-12T09:43:11;17.75;;;8.05;;
21162;SDS011;10739;52.198;20.908;2023-09-12T09:45:42;12.70;;;7.15;;
21162;SDS011;10739;52.198;20.908;2023-09-12T09:48:10;13.85;;;7.93;;
21162;SDS011;10739;52.198;20.908;2023-09-12T09:50:48;8.13;;;7.28;;
21162;SDS011;10739;52.198;20.908;2023-09-12T09:53:25;10.23;;;7.35;;
21162;SDS011;10739;52.198;20.908;2023-09-12T09:56:10;12.00;;;7.40;;
21162;SDS011;10739;52.198;20.908;2023-09-12T09:58:46;11.63;;;7.43;;
21162;SDS011;10739;52.198;20.908;2023-09-12T10:01:14;9.57;;;7.53;;
21162;SDS011;10739;52.198;20.908;2023-09-12T10:03:48;11.32;;;7.55;;
21162;SDS011;10739;52.198;20.908;2023-09-12T10:06:16;11.55;;;8.15;;
21162;SDS011;10739;52.198;20.908;2023-09-12T10:08:45;11.63;;;8.35;;
21162;SDS011;10739;52.198;20.908;2023-09-12T10:11:17;9.60;;;7.75;;
21162;SDS011;10739;52.198;20.908;2023-09-12T10:13:57;13.95;;;8.55;;
21162;SDS011;10739;52.198;20.908;2023-09-12T10:16:29;8.90;;;7.68;;
21162;SDS011;10739;52.198;20.908;2023-09-12T10:19:19;13.45;;;8.15;;
21162;SDS011;10739;52.198;20.908;2023-09-12T10:22:15;12.35;;;8.30;;
21162;SDS011;10739;52.198;20.908;2023-09-12T10:24:57;9.95;;;7.63;;
21162;SDS011;10739;52.198;20.908;2023-09-12T10:27:26;11.98;;;8.57;;
21162;SDS011;10739;52.198;20.908;2023-09-12T10:29:54;10.48;;;8.80;;
21162;SDS011;10739;52.198;20.908;2023-09-12T10:32:25;10.98;;;8.38;;
21162;SDS011;10739;52.198;20.908;2023-09-12T10:34:54;14.98;;;8.18;;
21162;SDS011;10739;52.198;20.908;2023-09-12T10:37:25;10.38;;;7.80;;
21162;SDS011;10739;52.198;20.908;2023-09-12T10:39:54;11.93;;;8.18;;
21162;SDS011;10739;52.198;20.908;2023-09-12T10:42:23;8.80;;;7.90;;
21162;SDS011;10739;52.198;20.908;2023-09-12T10:44:52;15.73;;;8.98;;
21162;SDS011;10739;52.198;20.908;2023-09-12T10:47:22;9.35;;;8.18;;
21162;SDS011;10739;52.198;20.908;2023-09-12T10:49:49;12.43;;;8.57;;
21162;SDS011;10739;52.198;20.908;2023-09-12T10:52:25;11.10;;;8.32;;
21162;SDS011;10739;52.198;20.908;2023-09-12T10:54:53;11.07;;;8.40;;
21162;SDS011;10739;52.198;20.908;2023-09-12T10:57:20;10.98;;;8.43;;
21162;SDS011;10739;52.198;20.908;2023-09-12T11:02:41;15.20;;;8.48;;
21162;SDS011;10739;52.198;20.908;2023-09-12T11:05:51;13.68;;;8.30;;
21162;SDS011;10739;52.198;20.908;2023-09-12T11:07:59;9.40;;;8.30;;
21162;SDS011;10739;52.198;20.908;2023-09-12T11:10:27;11.40;;;8.43;;
21162;SDS011;10739;52.198;20.908;2023-09-12T11:12:56;12.70;;;8.43;;
21162;SDS011;10739;52.198;20.908;2023-09-12T11:15:24;12.55;;;8.73;;
21162;SDS011;10739;52.198;20.908;2023-09-12T11:18:00;9.80;;;8.20;;
21162;SDS011;10739;52.198;20.908;2023-09-12T11:20:50;10.63;;;8.23;;
21162;SDS011;10739;52.198;20.908;2023-09-12T11:23:24;13.70;;;9.00;;
21162;SDS011;10739;52.198;20.908;2023-09-12T11:26:09;12.00;;;8.60;;
21162;SDS011;10739;52.198;20.908;2023-09-12T11:28:36;11.05;;;8.60;;
21162;SDS011;10739;52.198;20.908;2023-09-12T11:31:04;10.18;;;9.05;;
21162;SDS011;10739;52.198;20.908;2023-09-12T11:33:31;12.93;;;8.70;;
21162;SDS011;10739;52.198;20.908;2023-09-12T11:35:57;16.50;;;8.18;;
21162;SDS011;10739;52.198;20.908;2023-09-12T11:38:30;11.13;;;8.68;;
21162;SDS011;10739;52.198;20.908;2023-09-12T11:41:00;9.40;;;8.50;;
21162;SDS011;10739;52.198;20.908;2023-09-12T11:43:27;12.07;;;8.55;;
21162;SDS011;10739;52.198;20.908;2023-09-12T11:45:54;9.75;;;8.73;;
21162;SDS011;10739;52.198;20.908;2023-09-12T11:48:22;10.85;;;8.77;;
21162;SDS011;10739;52.198;20.908;2023-09-12T11:50:49;12.00;;;8.80;;
21162;SDS011;10739;52.198;20.908;2023-09-12T11:53:21;12.93;;;9.18;;
21162;SDS011;10739;52.198;20.908;2023-09-12T11:55:59;12.23;;;9.23;;
21162;SDS011;10739;52.198;20.908;2023-09-12T11:58:27;12.65;;;9.15;;
21162;SDS011;10739;52.198;20.908;2023-09-12T12:00:54;11.05;;;9.35;;
21162;SDS011;10739;52.198;20.908;2023-09-12T12:03:24;12.40;;;9.93;;
21162;SDS011;10739;52.198;20.908;2023-09-12T12:05:51;13.57;;;9.13;;
21162;SDS011;10739;52.198;20.908;2023-09-12T12:08:19;12.85;;;9.00;;
21162;SDS011;10739;52.198;20.908;2023-09-12T12:10:49;19.98;;;9.55;;
21162;SDS011;10739;52.198;20.908;2023-09-12T12:13:20;14.98;;;9.98;;
21162;SDS011;10739;52.198;20.908;2023-09-12T12:15:47;15.80;;;9.45;;
21162;SDS011;10739;52.198;20.908;2023-09-12T12:18:14;17.02;;;9.55;;
21162;SDS011;10739;52.198;20.908;2023-09-12T12:20:41;10.85;;;9.18;;
21162;SDS011;10739;52.198;20.908;2023-09-12T12:23:08;15.73;;;9.48;;
21162;SDS011;10739;52.198;20.908;2023-09-12T12:25:34;11.27;;;8.55;;
21162;SDS011;10739;52.198;20.908;2023-09-12T12:28:01;14.43;;;10.20;;
21162;SDS011;10739;52.198;20.908;2023-09-12T12:30:32;11.18;;;9.38;;
21162;SDS011;10739;52.198;20.908;2023-09-12T12:33:01;14.43;;;10.27;;
21162;SDS011;10739;52.198;20.908;2023-09-12T12:35:33;19.97;;;9.57;;
21162;SDS011;10739;52.198;20.908;2023-09-12T12:37:59;10.93;;;9.73;;
21162;SDS011;10739;52.198;20.908;2023-09-12T12:40:26;10.43;;;9.43;;
21162;SDS011;10739;52.198;20.908;2023-09-12T12:42:52;13.07;;;10.30;;
21162;SDS011;10739;52.198;20.908;2023-09-12T12:45:19;12.73;;;10.25;;
21162;SDS011;10739;52.198;20.908;2023-09-12T12:47:57;12.80;;;9.95;;
21162;SDS011;10739;52.198;20.908;2023-09-12T12:50:26;13.82;;;10.15;;
21162;SDS011;10739;52.198;20.908;2023-09-12T12:52:52;11.55;;;9.32;;
21162;SDS011;10739;52.198;20.908;2023-09-12T12:55:20;13.60;;;9.75;;
21162;SDS011;10739;52.198;20.908;2023-09-12T12:57:53;16.88;;;9.52;;
21162;SDS011;10739;52.198;20.908;2023-09-12T13:00:19;10.60;;;9.57;;
21162;SDS011;10739;52.198;20.908;2023-09-12T13:02:47;21.20;;;10.25;;
21162;SDS011;10739;52.198;20.908;2023-09-12T13:05:20;18.30;;;10.48;;
21162;SDS011;10739;52.198;20.908;2023-09-12T13:07:54;15.77;;;10.52;;
21162;SDS011;10739;52.198;20.908;2023-09-12T13:10:21;14.07;;;9.85;;
21162;SDS011;10739;52.198;20.908;2023-09-12T13:12:48;11.98;;;9.63;;
21162;SDS011;10739;52.198;20.908;2023-09-12T13:15:15;14.38;;;9.82;;
21162;SDS011;10739;52.198;20.908;2023-09-12T13:17:42;13.68;;;9.63;;
21162;SDS011;10739;52.198;20.908;2023-09-12T13:20:09;12.55;;;9.20;;
21162;SDS011;10739;52.198;20.908;2023-09-12T13:22:36;19.88;;;8.73;;
21162;SDS011;10739;52.198;20.908;2023-09-12T13:25:04;15.23;;;9.20;;
21162;SDS011;10739;52.198;20.908;2023-09-12T13:27:31;16.20;;;9.50;;
21162;SDS011;10739;52.198;20.908;2023-09-12T13:29:58;10.38;;;9.20;;
21162;SDS011;10739;52.198;20.908;2023-09-12T13:32:24;12.07;;;9.60;;
21162;SDS011;10739;52.198;20.908;2023-09-12T13:34:50;11.82;;;8.60;;
21162;SDS011;10739;52.198;20.908;2023-09-12T13:37:18;12.02;;;9.23;;
21162;SDS011;10739;52.198;20.908;2023-09-12T13:39:44;12.30;;;9.40;;
21162;SDS011;10739;52.198;20.908;2023-09-12T13:42:14;10.90;;;9.52;;
21162;SDS011;10739;52.198;20.908;2023-09-12T13:44:49;16.00;;;9.33;;
21162;SDS011;10739;52.198;20.908;2023-09-12T13:47:16;14.93;;;8.95;;
21162;SDS011;10739;52.198;20.908;2023-09-12T13:49:48;16.38;;;8.75;;
21162;SDS011;10739;52.198;20.908;2023-09-12T13:52:21;12.45;;;9.23;;
21162;SDS011;10739;52.198;20.908;2023-09-12T13:54:48;10.43;;;9.00;;
21162;SDS011;10739;52.198;20.908;2023-09-12T13:57:15;11.00;;;9.90;;
21162;SDS011;10739;52.198;20.908;2023-09-12T13:59:42;15.05;;;9.30;;
21162;SDS011;10739;52.198;20.908;2023-09-12T14:02:09;16.08;;;9.52;;
21162;SDS011;10739;52.198;20.908;2023-09-12T14:04:35;10.15;;;8.73;;
21162;SDS011;10739;52.198;20.908;2023-09-12T14:07:01;12.55;;;9.23;;
21162;SDS011;10739;52.198;20.908;2023-09-12T14:09:28;13.60;;;8.93;;
21162;SDS011;10739;52.198;20.908;2023-09-12T14:11:54;16.00;;;8.68;;
21162;SDS011;10739;52.198;20.908;2023-09-12T14:14:20;16.98;;;8.98;;
21162;SDS011;10739;52.198;20.908;2023-09-12T14:16:46;16.25;;;8.73;;
21162;SDS011;10739;52.198;20.908;2023-09-12T14:19:12;12.80;;;8.77;;
21162;SDS011;10739;52.198;20.908;2023-09-12T14:21:38;11.32;;;8.90;;
21162;SDS011;10739;52.198;20.908;2023-09-12T14:24:05;10.60;;;7.82;;
21162;SDS011;10739;52.198;20.908;2023-09-12T14:26:31;12.27;;;8.70;;